createdAt,value
2022-10-08T00:01:08.021Z,17.25
2022-10-08T00:04:11.375Z,17.14
2022-10-08T00:07:13.533Z,17.15
2022-10-08T00:10:15.625Z,17.26
2022-10-08T00:13:18.051Z,17.11
2022-10-08T00:16:22.571Z,17.20
2022-10-08T00:19:24.819Z,17.22
2022-10-08T00:22:27.268Z,17.32
2022-10-08T00:25:29.546Z,17.16
2022-10-08T00:28:31.777Z,17.14
2022-10-08T00:31:40.703Z,17.24
2022-10-08T00:34:44.209Z,17.11
2022-10-08T00:37:46.470Z,17.15
2022-10-08T00:40:48.764Z,17.13
2022-10-08T00:43:57.663Z,17.12
2022-10-08T00:46:59.803Z,17.00
2022-10-08T00:50:32.379Z,17.05
2022-10-08T00:53:35.331Z,16.95
2022-10-08T00:56:40.142Z,16.91
2022-10-08T00:59:42.498Z,16.88
2022-10-08T01:02:45.556Z,16.85
2022-10-08T01:06:04.677Z,16.91
2022-10-08T01:09:47.419Z,16.95
2022-10-08T01:12:52.092Z,16.92
2022-10-08T01:16:02.896Z,16.90
2022-10-08T01:19:17.019Z,16.98
2022-10-08T01:22:37.837Z,17.02
2022-10-08T01:25:45.832Z,17.05
2022-10-08T01:29:08.322Z,16.93
2022-10-08T01:32:17.917Z,17.01
2022-10-08T01:35:26.656Z,16.95
2022-10-08T01:38:34.046Z,17.01
2022-10-08T01:41:36.594Z,17.07
2022-10-08T01:44:48.868Z,16.91
2022-10-08T01:47:57.442Z,16.95
2022-10-08T01:51:03.174Z,16.92
2022-10-08T01:54:09.727Z,17.06
2022-10-08T01:57:12.267Z,17.02
2022-10-08T02:00:15.560Z,16.71
2022-10-08T02:03:19.200Z,16.85
2022-10-08T02:06:21.519Z,16.71
2022-10-08T02:09:26.520Z,16.84
2022-10-08T02:12:29.067Z,16.71
2022-10-08T02:16:03.000Z,16.78
2022-10-08T02:19:44.114Z,16.76
2022-10-08T02:22:59.227Z,16.72
2022-10-08T02:26:04.377Z,16.71
2022-10-08T02:29:35.923Z,16.75
2022-10-08T02:33:10.873Z,16.82
2022-10-08T02:36:17.636Z,16.63
2022-10-08T02:39:21.113Z,16.69
2022-10-08T02:42:27.716Z,16.68
2022-10-08T02:45:43.577Z,16.75
2022-10-08T02:48:53.248Z,16.80
2022-10-08T02:51:57.201Z,16.79
2022-10-08T02:55:01.627Z,16.77
2022-10-08T02:58:07.041Z,16.79
2022-10-08T03:01:18.431Z,16.75
2022-10-08T03:04:25.233Z,16.69
2022-10-08T03:07:31.158Z,16.67
2022-10-08T03:10:37.665Z,16.64
2022-10-08T03:13:46.451Z,16.53
2022-10-08T03:16:49.147Z,16.72
2022-10-08T03:19:51.959Z,16.67
2022-10-08T03:22:56.771Z,16.61
2022-10-08T03:25:58.819Z,16.80
2022-10-08T03:29:00.797Z,16.81
2022-10-08T03:32:03.025Z,17.02
2022-10-08T03:35:05.187Z,16.96
2022-10-08T03:38:07.173Z,16.88
2022-10-08T03:41:09.918Z,16.85
2022-10-08T03:44:12.612Z,16.82
2022-10-08T03:47:14.613Z,16.75
2022-10-08T03:50:16.716Z,16.83
2022-10-08T03:53:19.426Z,16.81
2022-10-08T03:56:25.954Z,16.82
2022-10-08T03:59:28.112Z,16.80
2022-10-08T04:02:30.262Z,16.77
2022-10-08T04:05:32.459Z,16.78
2022-10-08T04:08:35.341Z,16.82
2022-10-08T04:11:37.680Z,16.71
2022-10-08T04:14:40.447Z,16.67
2022-10-08T04:17:43.045Z,16.67
2022-10-08T04:20:45.123Z,16.67
2022-10-08T04:23:49.411Z,16.73
2022-10-08T04:26:51.627Z,17.08
2022-10-08T04:29:53.689Z,17.26
2022-10-08T04:32:57.984Z,17.80
2022-10-08T04:36:01.414Z,18.16
2022-10-08T04:39:03.793Z,18.58
2022-10-08T04:42:05.984Z,18.66
2022-10-08T04:45:08.392Z,18.86
2022-10-08T04:48:10.748Z,19.09
2022-10-08T04:51:12.829Z,19.31
2022-10-08T04:54:15.038Z,19.48
2022-10-08T04:57:17.148Z,19.53
2022-10-08T05:00:19.572Z,19.56
2022-10-08T05:03:21.763Z,19.55
2022-10-08T05:06:27.204Z,19.47
2022-10-08T05:09:29.248Z,19.45
2022-10-08T05:12:31.278Z,19.50
2022-10-08T05:15:35.338Z,19.65
2022-10-08T05:18:38.188Z,19.65
2022-10-08T05:21:40.462Z,19.56
2022-10-08T05:24:42.517Z,19.63
2022-10-08T05:27:44.568Z,19.65
2022-10-08T05:30:46.802Z,19.47
2022-10-08T05:33:49.220Z,19.37
2022-10-08T05:36:51.402Z,19.21
2022-10-08T05:39:53.421Z,19.22
2022-10-08T05:42:55.463Z,19.10
2022-10-08T05:45:57.547Z,18.98
2022-10-08T05:49:01.495Z,18.93
2022-10-08T05:52:03.936Z,18.88
2022-10-08T05:55:08.065Z,19.04
2022-10-08T05:58:10.845Z,19.17
2022-10-08T06:01:20.413Z,19.19
2022-10-08T06:04:22.835Z,19.36
2022-10-08T06:07:26.055Z,19.51
2022-10-08T06:10:28.738Z,19.61
2022-10-08T06:13:31.131Z,19.91
2022-10-08T06:16:33.755Z,20.08
2022-10-08T06:19:37.386Z,20.37
2022-10-08T06:22:39.499Z,20.48
2022-10-08T06:25:41.573Z,20.60
2022-10-08T06:28:44.257Z,20.53
2022-10-08T06:31:46.853Z,20.56
2022-10-08T06:34:48.943Z,20.47
2022-10-08T06:37:51.031Z,20.45
2022-10-08T06:40:53.109Z,20.43
2022-10-08T06:43:55.877Z,20.31
2022-10-08T06:46:57.858Z,20.40
2022-10-08T06:50:01.701Z,20.30
2022-10-08T06:53:06.131Z,20.22
2022-10-08T06:56:19.314Z,20.13
2022-10-08T06:59:21.442Z,20.20
2022-10-08T07:02:23.842Z,20.18
2022-10-08T07:05:26.006Z,20.20
2022-10-08T07:08:29.959Z,20.19
2022-10-08T07:11:33.781Z,20.16
2022-10-08T07:14:35.937Z,20.27
2022-10-08T07:17:38.117Z,20.16
2022-10-08T07:20:40.208Z,20.13
2022-10-08T07:23:42.634Z,20.14
2022-10-08T07:26:44.659Z,20.17
2022-10-08T07:29:47.048Z,20.03
2022-10-08T07:32:53.728Z,20.05
2022-10-08T07:35:55.775Z,20.03
2022-10-08T07:39:07.741Z,20.16
2022-10-08T07:42:10.376Z,20.15
2022-10-08T07:45:12.634Z,20.13
2022-10-08T07:48:20.736Z,20.27
2022-10-08T07:51:23.645Z,20.26
2022-10-08T07:54:25.607Z,20.65
2022-10-08T07:57:28.308Z,20.70
2022-10-08T08:00:30.647Z,20.63
2022-10-08T08:03:33.389Z,20.78
2022-10-08T08:06:43.589Z,20.66
2022-10-08T08:09:47.341Z,20.65
2022-10-08T08:12:49.835Z,20.65
2022-10-08T08:16:00.354Z,20.41
2022-10-08T08:19:03.339Z,20.74
2022-10-08T08:22:05.358Z,21.04
2022-10-08T08:25:07.833Z,21.26
2022-10-08T08:28:09.895Z,21.26
2022-10-08T08:31:23.668Z,21.08
2022-10-08T08:34:26.260Z,20.92
2022-10-08T08:37:28.329Z,20.72
2022-10-08T08:40:30.740Z,20.81
2022-10-08T08:43:37.586Z,21.14
2022-10-08T08:46:45.238Z,21.51
2022-10-08T08:49:54.107Z,22.20
2022-10-08T08:52:57.764Z,23.03
2022-10-08T08:56:05.061Z,23.79
2022-10-08T08:59:27.582Z,24.67
2022-10-08T09:02:36.099Z,24.60
2022-10-08T09:05:44.121Z,24.44
2022-10-08T09:09:15.169Z,24.66
2022-10-08T09:12:22.375Z,25.23
2022-10-08T09:15:31.355Z,25.54
2022-10-08T09:18:33.405Z,25.29
2022-10-08T09:21:35.515Z,24.45
2022-10-08T09:24:39.186Z,23.55
2022-10-08T09:27:49.251Z,22.92
2022-10-08T09:30:51.475Z,22.21
2022-10-08T09:33:57.463Z,21.75
2022-10-08T09:37:06.306Z,21.58
2022-10-08T09:40:23.519Z,21.53
2022-10-08T09:43:25.765Z,21.01
2022-10-08T09:46:30.390Z,20.94
2022-10-08T09:49:35.051Z,20.75
2022-10-08T09:52:40.434Z,20.85
2022-10-08T09:55:50.987Z,20.83
2022-10-08T09:58:56.579Z,20.71
2022-10-08T10:01:59.247Z,20.62
2022-10-08T10:05:04.718Z,20.48
2022-10-08T10:08:07.113Z,20.37
2022-10-08T10:11:20.133Z,20.34
2022-10-08T10:14:31.116Z,20.29
2022-10-08T10:17:43.281Z,20.16
2022-10-08T10:20:54.084Z,20.00
2022-10-08T10:24:14.340Z,20.14
2022-10-08T10:27:23.421Z,20.40
2022-10-08T10:30:26.146Z,20.53
2022-10-08T10:33:33.217Z,20.62
2022-10-08T10:36:40.265Z,20.77
2022-10-08T10:39:52.094Z,20.73
2022-10-08T10:43:09.015Z,20.82
2022-10-08T10:46:22.991Z,20.90
2022-10-08T10:49:38.489Z,20.96
2022-10-08T10:52:51.075Z,20.92
2022-10-08T10:56:11.629Z,21.02
2022-10-08T10:59:42.206Z,21.27
2022-10-08T11:02:56.919Z,21.59
2022-10-08T11:06:35.031Z,21.95
2022-10-08T11:09:54.232Z,22.13
2022-10-08T11:13:22.531Z,22.23
2022-10-08T11:16:50.358Z,22.16
2022-10-08T11:19:58.242Z,22.24
2022-10-08T11:24:01.625Z,22.22
2022-10-08T11:27:06.728Z,22.34
2022-10-08T11:30:18.060Z,22.41
2022-10-08T11:33:21.416Z,22.42
2022-10-08T11:36:45.580Z,22.38
2022-10-08T11:40:00.142Z,22.36
2022-10-08T11:43:11.136Z,22.18
2022-10-08T11:46:23.254Z,22.16
2022-10-08T11:49:27.259Z,22.13
2022-10-08T11:52:31.779Z,22.18
2022-10-08T11:55:33.981Z,22.17
2022-10-08T11:58:36.042Z,22.23
2022-10-08T12:01:53.398Z,22.05
2022-10-08T12:04:58.973Z,21.89
2022-10-08T12:08:04.032Z,22.02
2022-10-08T12:11:37.651Z,22.10
2022-10-08T12:14:47.247Z,21.95
2022-10-08T12:18:13.013Z,21.86
2022-10-08T12:21:18.157Z,21.84
2022-10-08T12:24:38.569Z,21.75
2022-10-08T12:27:41.314Z,21.62
2022-10-08T12:30:52.205Z,21.43
2022-10-08T12:34:00.122Z,21.60
2022-10-08T12:37:16.328Z,21.61
2022-10-08T12:40:34.793Z,21.66
2022-10-08T12:43:44.576Z,21.69
2022-10-08T12:47:01.798Z,21.81
2022-10-08T12:50:31.130Z,21.68
2022-10-08T12:53:35.503Z,21.62
2022-10-08T12:56:45.394Z,21.64
2022-10-08T12:59:50.743Z,21.72
2022-10-08T13:03:01.101Z,21.68
2022-10-08T13:06:35.642Z,21.62
2022-10-08T13:09:37.656Z,21.62
2022-10-08T13:12:40.594Z,21.61
2022-10-08T13:15:42.664Z,21.59
2022-10-08T13:18:50.612Z,21.60
2022-10-08T13:22:08.119Z,21.51
2022-10-08T13:25:39.082Z,21.49
2022-10-08T13:28:59.011Z,21.48
2022-10-08T13:32:18.497Z,21.46
2022-10-08T13:35:23.866Z,21.81
2022-10-08T13:38:30.590Z,21.82
2022-10-08T13:41:32.559Z,21.78
2022-10-08T13:44:36.925Z,21.69
2022-10-08T13:47:38.843Z,21.65
2022-10-08T13:50:52.696Z,21.54
2022-10-08T13:53:57.162Z,21.59
2022-10-08T13:57:00.463Z,21.56
2022-10-08T14:00:02.635Z,21.53
2022-10-08T14:03:07.419Z,21.49
2022-10-08T14:06:09.608Z,21.38
2022-10-08T14:09:23.924Z,21.26
2022-10-08T14:12:30.218Z,21.40
2022-10-08T14:15:32.185Z,21.38
2022-10-08T14:18:34.201Z,21.14
2022-10-08T14:21:38.018Z,21.36
2022-10-08T14:24:40.365Z,21.32
2022-10-08T14:27:42.795Z,21.31
2022-10-08T14:30:44.925Z,21.28
2022-10-08T14:33:47.031Z,21.25
2022-10-08T14:36:51.851Z,21.22
2022-10-08T14:39:54.694Z,20.69
2022-10-08T14:42:56.687Z,21.18
2022-10-08T14:45:59.199Z,21.09
2022-10-08T14:49:01.323Z,21.15
2022-10-08T14:52:03.440Z,21.12
2022-10-08T14:55:06.443Z,21.09
2022-10-08T14:58:08.613Z,21.02
2022-10-08T15:01:10.691Z,21.12
2022-10-08T15:04:15.059Z,21.16
2022-10-08T15:07:17.966Z,21.08
2022-10-08T15:10:20.030Z,20.98
2022-10-08T15:13:23.047Z,20.82
2022-10-08T15:16:26.284Z,20.78
2022-10-08T15:19:28.639Z,20.67
2022-10-08T15:22:31.289Z,20.66
2022-10-08T15:25:33.764Z,20.77
2022-10-08T15:28:38.502Z,20.64
2022-10-08T15:31:43.058Z,20.62
2022-10-08T15:34:45.205Z,20.45
2022-10-08T15:37:47.622Z,20.30
2022-10-08T15:40:52.860Z,20.42
2022-10-08T15:44:09.501Z,20.39
2022-10-08T15:47:12.558Z,20.41
2022-10-08T15:50:16.366Z,20.22
2022-10-08T15:53:18.510Z,20.12
2022-10-08T15:56:20.859Z,20.06
2022-10-08T15:59:25.144Z,19.91
2022-10-08T16:02:27.586Z,19.76
2022-10-08T16:05:29.913Z,19.82
2022-10-08T16:08:35.292Z,19.74
2022-10-08T16:11:37.920Z,19.62
2022-10-08T16:14:39.842Z,19.63
2022-10-08T16:17:41.964Z,19.65
2022-10-08T16:20:44.155Z,19.64
2022-10-08T16:23:46.378Z,19.60
2022-10-08T16:26:49.032Z,19.73
2022-10-08T16:29:51.215Z,19.67
2022-10-08T16:32:54.170Z,19.67
2022-10-08T16:35:57.131Z,19.84
2022-10-08T16:38:59.333Z,19.80
2022-10-08T16:42:01.388Z,19.75
2022-10-08T16:45:04.367Z,19.77
2022-10-08T16:48:08.511Z,19.80
2022-10-08T16:51:11.823Z,19.78
2022-10-08T16:54:16.373Z,19.76
2022-10-08T16:57:20.544Z,19.79
2022-10-08T17:00:22.677Z,19.80
2022-10-08T17:03:26.597Z,19.80
2022-10-08T17:06:29.372Z,19.79
2022-10-08T17:09:32.899Z,19.74
2022-10-08T17:12:35.115Z,19.75
2022-10-08T17:15:37.379Z,19.71
2022-10-08T17:18:41.774Z,19.71
2022-10-08T17:21:43.933Z,19.64
2022-10-08T17:24:46.895Z,19.52
2022-10-08T17:27:48.975Z,19.47
2022-10-08T17:30:51.051Z,19.39
2022-10-08T17:33:54.132Z,19.29
2022-10-08T17:36:56.177Z,19.22
2022-10-08T17:39:58.251Z,19.20
2022-10-08T17:43:00.468Z,19.27
2022-10-08T17:46:20.502Z,19.14
2022-10-08T17:49:23.344Z,19.03
2022-10-08T17:52:25.504Z,19.02
2022-10-08T17:55:29.068Z,18.92
2022-10-08T17:58:32.083Z,18.86
2022-10-08T18:01:40.215Z,18.93
2022-10-08T18:04:46.103Z,18.86
2022-10-08T18:07:48.145Z,18.75
2022-10-08T18:10:52.144Z,18.70
2022-10-08T18:13:54.679Z,18.70
2022-10-08T18:16:57.561Z,18.70
2022-10-08T18:20:00.744Z,18.66
2022-10-08T18:23:04.912Z,18.73
2022-10-08T18:26:23.608Z,18.69
2022-10-08T18:29:28.230Z,18.53
2022-10-08T18:32:30.767Z,18.50
2022-10-08T18:35:33.507Z,18.49
2022-10-08T18:38:35.833Z,18.61
2022-10-08T18:41:41.611Z,18.54
2022-10-08T18:44:44.128Z,18.45
2022-10-08T18:47:48.132Z,18.54
2022-10-08T18:50:50.243Z,18.58
2022-10-08T18:53:54.271Z,18.46
2022-10-08T18:57:00.173Z,18.35
2022-10-08T19:00:02.756Z,18.40
2022-10-08T19:03:06.200Z,18.44
2022-10-08T19:06:08.506Z,18.52
2022-10-08T19:09:12.845Z,18.48
2022-10-08T19:12:15.129Z,18.33
2022-10-08T19:15:17.851Z,18.24
2022-10-08T19:18:20.212Z,18.01
2022-10-08T19:21:23.812Z,17.93
2022-10-08T19:24:27.156Z,17.77
2022-10-08T19:27:29.228Z,17.83
2022-10-08T19:30:34.427Z,17.66
2022-10-08T19:33:36.945Z,17.77
2022-10-08T19:36:43.171Z,17.72
2022-10-08T19:39:47.594Z,17.67
2022-10-08T19:42:51.456Z,17.63
2022-10-08T19:45:54.167Z,17.53
2022-10-08T19:49:00.338Z,17.52
2022-10-08T19:52:02.643Z,17.64
2022-10-08T19:55:06.834Z,17.55
2022-10-08T19:58:11.727Z,17.67
2022-10-08T20:01:19.081Z,17.71
2022-10-08T20:04:23.641Z,17.66
2022-10-08T20:07:26.031Z,17.60
2022-10-08T20:10:28.166Z,17.65
2022-10-08T20:13:31.133Z,17.54
2022-10-08T20:16:36.323Z,17.53
2022-10-08T20:19:38.605Z,17.41
2022-10-08T20:22:40.897Z,17.31
2022-10-08T20:25:43.061Z,17.29
2022-10-08T20:28:47.542Z,17.38
2022-10-08T20:31:54.548Z,17.29
2022-10-08T20:34:56.949Z,17.20
2022-10-08T20:37:59.055Z,17.21
2022-10-08T20:41:01.211Z,17.05
2022-10-08T20:47:20.868Z,17.04
2022-10-08T20:50:23.532Z,17.23
2022-10-08T20:53:27.623Z,17.17
2022-10-08T20:56:34.664Z,17.01
2022-10-08T20:59:38.166Z,17.19
2022-10-08T21:02:42.260Z,17.05
2022-10-08T21:05:46.972Z,17.04
2022-10-08T21:08:53.151Z,17.09
2022-10-08T21:11:55.509Z,17.14
2022-10-08T21:14:57.737Z,17.09
2022-10-08T21:18:00.126Z,17.02
2022-10-08T21:21:10.513Z,16.92
2022-10-08T21:24:15.163Z,16.87
2022-10-08T21:27:17.545Z,16.91
2022-10-08T21:30:19.793Z,16.75
2022-10-08T21:33:21.887Z,16.79
2022-10-08T21:36:30.476Z,16.89
2022-10-08T21:39:32.534Z,16.98
2022-10-08T21:42:34.669Z,16.75
2022-10-08T21:45:36.968Z,16.86
2022-10-08T21:48:39.719Z,16.66
2022-10-08T21:51:42.372Z,16.88
2022-10-08T21:54:44.769Z,16.65
2022-10-08T21:57:50.044Z,16.81
2022-10-08T22:00:53.864Z,16.90
2022-10-08T22:04:03.682Z,16.82
2022-10-08T22:07:05.726Z,16.69
2022-10-08T22:10:08.556Z,16.67
2022-10-08T22:13:10.773Z,16.59
2022-10-08T22:16:18.503Z,16.79
2022-10-08T22:19:21.992Z,16.76
2022-10-08T22:22:25.174Z,16.72
2022-10-08T22:25:27.951Z,16.88
2022-10-08T22:28:31.268Z,16.62
2022-10-08T22:31:33.658Z,16.87
2022-10-08T22:34:35.965Z,16.80
2022-10-08T22:37:38.083Z,16.81
2022-10-08T22:40:40.496Z,16.78
2022-10-08T22:43:43.754Z,16.69
2022-10-08T22:46:46.258Z,16.68
2022-10-08T22:49:48.295Z,16.68
2022-10-08T22:52:51.994Z,16.72
2022-10-08T22:55:54.434Z,16.57
2022-10-08T22:58:58.510Z,16.74
2022-10-08T23:02:01.077Z,16.39
2022-10-08T23:05:04.068Z,16.59
2022-10-08T23:08:06.055Z,16.34
2022-10-08T23:11:08.538Z,16.38
2022-10-08T23:14:11.004Z,16.69
2022-10-08T23:17:13.197Z,16.52
2022-10-08T23:20:15.311Z,16.60
2022-10-08T23:23:17.660Z,16.63
2022-10-08T23:26:20.871Z,16.50
2022-10-08T23:29:23.044Z,16.51
2022-10-08T23:32:25.150Z,16.36
2022-10-08T23:35:28.581Z,16.54
2022-10-08T23:38:30.684Z,16.63
2022-10-08T23:41:34.085Z,16.62
2022-10-08T23:44:37.073Z,16.72
2022-10-08T23:47:41.212Z,16.57
2022-10-08T23:50:43.362Z,16.47
2022-10-08T23:53:46.426Z,16.50
2022-10-08T23:56:49.443Z,16.45
2022-10-08T23:59:51.654Z,16.47
